McAllen, TX (78501)

3:23 PM CDT on September 23, 2014 (GMT -0500)
McAllen NorthEast | Change Station
CLOSE
Current Station
Personal Weather Station
Location: McAllen, TX
Elevation: 115 ft
Nearby Weather Stations

Elev 115 ft 26.24 °N, 98.22 °W | Updated 12 seconds ago

Rain
Rain
79.7 °F
Feels Like 85 °F
N
0.0
Wind Variable Wind from NE
Gusts 1.0 mph

Today
High -- | Low -- °F
--% Chance of Precip.
Yesterday
High -- | Low -- °F
Precip. -- in
7:21 AM 7:28 PM
Waning Crescent, 0% visible
Pressure 30.01 in
Visibility 10.0 miles
Clouds Few 3200 ft
Scattered Clouds 6500 ft
Heat Index 85 °F
Dew Point 76 °F
Humidity 89%
Rainfall 0.05 in
Snow Depth Not available.
UV 7 out of 12
Pollen 9.40 out of 12
Ozone Good
PM2.5 Moderate
Flu Activity Not available.
METAR KMFE 231953Z 01010KT 10SM FEW032 SCT065 29/23 A3001

More Conditions Fewer Conditions

Pressure 30.01 in
Visibility 10.0 miles
Clouds Few 3200 ft
Scattered Clouds 6500 ft
Heat Index 85 °F
Dew Point 76 °F
Humidity 89%
Rainfall 0.05 in
Snow Depth Not available.
UV 7 out of 12
Pollen 9.40 out of 12
Ozone Good
PM2.5 Moderate
Flu Activity Not available.
METAR KMFE 231953Z 01010KT 10SM FEW032 SCT065 29/23 A3001

More Conditions Fewer Conditions

Nowcast | as of 2:57 PM CDT on September 23, 2014

Through 5 PM...scattered showers and thunderstorms will continue to develop and move southwest at around 15 mph across the Rio Grande Valley and deep south Texas. Periods of moderate to occasionally heavy rainfall can be expected with rainfall accumulations up to half an inch.

×

10-Day Weather Forecast

Almanac

Astronomy

Sep. 23, 2014 Rise Set
Actual Time 7:21 AM CDT 7:28 PM CDT
Civil Twilight 6:58 AM CDT 7:51 PM CDT
Nautical Twilight 6:32 AM CDT 8:18 PM CDT
Astronomical Twilight 6:05 AM CDT 8:44 PM CDT
Moon 6:48 AM CDT 7:09 PM CDT
Length of Visible Light 12h 52m
Length of Day
12h 06m
Tomorrow will be 1m 32s shorter.
Waning Crescent, 0% of the Moon is Illuminated
Today
Waning Crescent
Sep 24
New
Oct 1
First Quarter
Oct 8
Full
Oct 15
Last Quarter

Today's Extremes

State Highs State Lows

Community

WunderPhotos

Upload Photos

1,755,787 photos uploaded!

WunderBlogs® & News

By Dr. Jeff Masters
Director of Meteorology, Weather Underground
By Kari Strenfel
Meteorologist, Weather Underground
By Christopher C. Burt
Weather Historian, Weather Underground
September 23, 2014
September 23, 2014
September 23, 2014

Nearby

Air Quality

  Air Quality AQ Index Pollutant
Yesterday Good
OZONE
Yesterday Good
PM2.5
Current Moderate
PM2.5
Current Good
OZONE
Tuesday Good
PM10
Tuesday Good
OZONE
Wednesday Good
PM10
Wednesday Good
OZONE
Thursday Good
PM10
Thursday Good
OZONE
Friday Good
PM10
Friday Good
OZONE

Snow Depth

Station Depth Elevation
No new snow has been reported.

Earthquake Activity

City Distance Mag. Time & Date
No recent earthquake activity has been reported nearby.
Minimum magnitude displayed is 2.5.

Coastal Water Temperatures

Place Temperature
No Stations Reporting

Nearby Weather Stations